createdAt,value
2019-04-23T00:01:23.834Z,1.50
2019-04-23T00:03:50.025Z,1.80
2019-04-23T00:06:43.314Z,1.73
2019-04-23T00:09:05.412Z,1.73
2019-04-23T00:16:50.324Z,1.93
2019-04-23T00:19:02.632Z,1.80
2019-04-23T00:21:53.453Z,1.67
2019-04-23T00:30:12.941Z,1.70
2019-04-23T00:37:37.392Z,1.90
2019-04-23T00:40:15.392Z,2.00
2019-04-23T00:42:41.665Z,2.13
2019-04-23T00:45:24.731Z,1.80
2019-04-23T00:47:48.306Z,1.70
2019-04-23T00:50:38.441Z,1.70
2019-04-23T00:52:50.751Z,2.00
2019-04-23T00:55:22.806Z,2.17
2019-04-23T00:58:02.848Z,2.03
2019-04-23T01:00:34.073Z,2.23
2019-04-23T01:03:05.819Z,2.53
2019-04-23T01:05:31.129Z,2.20
2019-04-23T01:08:06.797Z,2.13
2019-04-23T01:10:57.205Z,2.10
2019-04-23T01:13:31.952Z,2.37
2019-04-23T01:18:50.620Z,2.10
2019-04-23T01:20:56.105Z,2.10
2019-04-23T01:23:51.604Z,2.33
2019-04-23T01:26:35.455Z,1.83
2019-04-23T01:29:14.021Z,2.20
2019-04-23T01:31:47.808Z,1.93
2019-04-23T01:34:21.719Z,2.10
2019-04-23T01:36:54.516Z,1.90
2019-04-23T01:39:39.713Z,2.43
2019-04-23T01:42:08.821Z,2.10
2019-04-23T01:44:36.713Z,2.33
2019-04-23T01:47:00.714Z,2.23
2019-04-23T01:49:50.358Z,2.20
2019-04-23T01:52:08.309Z,2.40
2019-04-23T01:54:45.827Z,2.43
2019-04-23T01:57:16.652Z,2.47
2019-04-23T01:59:48.610Z,2.23
2019-04-23T02:02:22.077Z,2.47
2019-04-23T02:04:55.734Z,2.40
2019-04-23T02:07:31.054Z,2.47
2019-04-23T02:10:16.751Z,2.60
2019-04-23T02:12:28.597Z,2.37
2019-04-23T02:14:57.262Z,2.70
2019-04-23T02:17:31.247Z,2.67
2019-04-23T02:20:08.983Z,2.10
2019-04-23T02:30:53.254Z,2.77
2019-04-23T02:33:17.712Z,2.53
2019-04-23T02:38:52.395Z,2.60
2019-04-23T02:41:29.716Z,2.60
2019-04-23T02:44:09.207Z,2.57
2019-04-23T02:46:21.953Z,2.40
2019-04-23T02:49:04.941Z,2.43
2019-04-23T02:51:39.586Z,2.43
2019-04-23T02:56:46.946Z,2.80
2019-04-23T02:59:19.055Z,3.07
2019-04-23T03:01:40.023Z,2.57
2019-04-23T03:04:34.146Z,2.90
2019-04-23T03:06:58.463Z,3.00
2019-04-23T03:09:27.898Z,2.80
2019-04-23T03:12:02.651Z,2.83
2019-04-23T03:14:25.048Z,2.90
2019-04-23T03:17:02.994Z,2.67
2019-04-23T03:19:47.959Z,2.83
2019-04-23T03:22:15.679Z,3.13
2019-04-23T03:25:15.309Z,2.83
2019-04-23T03:27:41.948Z,3.00
2019-04-23T03:30:26.397Z,2.93
2019-04-23T03:35:19.459Z,3.57
2019-04-23T03:37:58.568Z,2.63
2019-04-23T03:40:21.223Z,3.73
2019-04-23T03:43:47.014Z,3.27
2019-04-23T03:45:55.823Z,3.70
2019-04-23T03:48:08.069Z,3.47
2019-04-23T03:50:43.633Z,3.77
2019-04-23T03:53:22.552Z,3.67
2019-04-23T03:55:49.678Z,3.43
2019-04-23T03:58:22.590Z,3.60
2019-04-23T04:04:12.535Z,3.50
2019-04-23T04:06:31.210Z,3.70
2019-04-23T04:08:58.439Z,3.90
2019-04-23T04:11:25.098Z,4.10
2019-04-23T04:14:10.181Z,3.87
2019-04-23T04:16:28.223Z,3.50
2019-04-23T04:21:52.084Z,4.30
2019-04-23T04:31:48.511Z,3.93
2019-04-23T04:34:55.517Z,4.00
2019-04-23T04:39:43.068Z,3.83
2019-04-23T04:42:02.561Z,3.90
2019-04-23T04:44:42.683Z,4.53
2019-04-23T04:47:00.797Z,4.60
2019-04-23T04:49:49.387Z,4.87
2019-04-23T04:52:22.907Z,4.80
2019-04-23T04:54:24.556Z,4.50
2019-04-23T04:57:20.371Z,4.80
2019-04-23T04:59:59.440Z,4.90
2019-04-23T05:07:32.711Z,5.43
2019-04-23T05:10:08.051Z,4.93
2019-04-23T05:12:32.655Z,5.17
2019-04-23T05:20:37.340Z,5.70
2019-04-23T05:23:16.388Z,5.30
2019-04-23T05:25:44.693Z,5.53
2019-04-23T05:28:49.205Z,6.00
2019-04-23T05:31:05.725Z,5.67
2019-04-23T05:33:49.364Z,5.80
2019-04-23T05:41:29.526Z,6.20
2019-04-23T05:44:04.673Z,6.47
2019-04-23T05:47:25.432Z,6.33
2019-04-23T05:52:24.031Z,7.20
2019-04-23T05:55:18.735Z,6.47
2019-04-23T05:58:08.862Z,6.40
2019-04-23T06:00:41.585Z,7.40
2019-04-23T06:03:24.806Z,6.60
2019-04-23T06:05:54.399Z,6.67
2019-04-23T06:11:02.386Z,7.00
2019-04-23T06:13:35.583Z,7.43
2019-04-23T06:16:05.176Z,7.07
2019-04-23T06:18:59.239Z,7.20
2019-04-23T06:21:33.954Z,6.97
2019-04-23T06:24:29.226Z,7.10
2019-04-23T06:27:06.747Z,7.03
2019-04-23T06:29:57.409Z,7.07
2019-04-23T06:32:32.234Z,7.10
2019-04-23T06:35:03.531Z,7.20
2019-04-23T06:43:21.406Z,7.10
2019-04-23T06:45:43.457Z,7.10
2019-04-23T06:48:33.801Z,6.97
2019-04-23T06:51:27.150Z,7.53
2019-04-23T06:53:51.287Z,7.17
2019-04-23T06:56:40.655Z,7.20
2019-04-23T06:59:07.632Z,7.00
2019-04-23T07:01:36.581Z,7.23
2019-04-23T07:04:12.358Z,7.03
2019-04-23T07:06:46.765Z,7.63
2019-04-23T07:09:18.616Z,7.10
2019-04-23T07:12:05.336Z,7.33
2019-04-23T07:14:21.867Z,7.47
2019-04-23T07:16:52.845Z,6.77
2019-04-23T07:20:00.232Z,7.43
2019-04-23T07:22:42.853Z,7.07
2019-04-23T07:25:15.393Z,7.90
2019-04-23T07:27:49.258Z,6.63
2019-04-23T07:30:52.080Z,7.60
2019-04-23T07:33:28.140Z,7.20
2019-04-23T07:36:08.565Z,6.90
2019-04-23T07:42:20.607Z,7.00
2019-04-23T07:45:09.398Z,7.57
2019-04-23T07:53:39.982Z,6.73
2019-04-23T07:56:21.413Z,7.23
2019-04-23T07:59:13.873Z,7.07
2019-04-23T08:01:47.105Z,7.40
2019-04-23T08:04:16.871Z,7.53
2019-04-23T08:06:54.502Z,7.33
2019-04-23T08:09:34.215Z,7.20
2019-04-23T08:12:25.083Z,7.27
2019-04-23T08:14:55.362Z,7.00
2019-04-23T08:17:26.226Z,7.07
2019-04-23T08:19:59.591Z,7.27
2019-04-23T08:23:03.918Z,7.27
2019-04-23T08:26:17.558Z,7.20
2019-04-23T08:28:48.386Z,7.00
2019-04-23T08:31:27.492Z,7.67
2019-04-23T08:34:18.642Z,8.13
2019-04-23T08:36:58.303Z,7.90
2019-04-23T08:39:35.424Z,7.53
2019-04-23T08:42:33.077Z,7.20
2019-04-23T08:45:31.347Z,7.77
2019-04-23T08:48:33.457Z,7.17
2019-04-23T08:50:50.691Z,7.90
2019-04-23T08:56:08.705Z,7.43
2019-04-23T08:58:41.662Z,6.97
2019-04-23T09:01:46.389Z,7.10
2019-04-23T09:03:51.275Z,6.97
2019-04-23T09:08:56.994Z,7.50
2019-04-23T09:11:45.835Z,7.80
2019-04-23T09:14:27.646Z,8.43
2019-04-23T09:17:11.429Z,7.13
2019-04-23T09:20:13.185Z,7.10
2019-04-23T09:22:46.457Z,7.67
2019-04-23T09:28:31.101Z,7.40
2019-04-23T09:36:59.627Z,7.43
2019-04-23T09:39:51.228Z,7.67
2019-04-23T09:43:09.989Z,7.43
2019-04-23T09:46:04.683Z,7.13
2019-04-23T09:48:50.890Z,7.37
2019-04-23T09:51:24.155Z,7.40
2019-04-23T09:54:12.951Z,7.43
2019-04-23T09:56:47.743Z,8.40
2019-04-23T10:02:10.468Z,8.13
2019-04-23T10:04:41.153Z,7.87
2019-04-23T10:07:16.406Z,8.20
2019-04-23T10:09:44.586Z,7.80
2019-04-23T10:12:20.087Z,7.33
2019-04-23T10:15:13.788Z,7.37
2019-04-23T10:17:28.389Z,7.90
2019-04-23T10:20:02.701Z,7.70
2019-04-23T10:22:42.210Z,7.77
2019-04-23T10:25:22.726Z,8.53
2019-04-23T10:28:04.995Z,7.77
2019-04-23T10:30:38.498Z,8.13
2019-04-23T10:33:11.638Z,6.90
2019-04-23T10:35:53.122Z,7.10
2019-04-23T10:38:20.221Z,9.40
2019-04-23T10:40:50.156Z,7.73
2019-04-23T10:43:31.536Z,7.37
2019-04-23T10:46:43.301Z,7.23
2019-04-23T10:55:38.288Z,7.50
2019-04-23T11:04:00.369Z,6.83
2019-04-23T11:06:25.291Z,7.90
2019-04-23T11:09:42.542Z,7.73
2019-04-23T11:12:26.867Z,7.33
2019-04-23T11:17:38.349Z,6.97
2019-04-23T11:20:22.465Z,7.50
2019-04-23T11:25:28.080Z,6.67
2019-04-23T11:27:58.576Z,7.10
2019-04-23T11:30:44.984Z,7.33
2019-04-23T11:33:50.966Z,7.07
2019-04-23T11:36:53.681Z,7.40
2019-04-23T11:39:21.703Z,7.00
2019-04-23T11:44:26.675Z,5.83
2019-04-23T11:47:12.524Z,6.07
2019-04-23T11:52:32.166Z,18.73
2019-04-23T11:55:00.699Z,8.50
2019-04-23T12:00:13.775Z,7.00
2019-04-23T12:03:02.701Z,6.50
2019-04-23T12:08:43.129Z,6.57
2019-04-23T12:15:11.705Z,7.17
2019-04-23T12:17:45.992Z,7.07
2019-04-23T12:20:26.733Z,7.07
2019-04-23T12:22:51.222Z,6.97
2019-04-23T12:25:37.830Z,7.30
2019-04-23T12:28:18.101Z,6.77
2019-04-23T12:30:50.560Z,6.73
2019-04-23T12:33:39.122Z,6.77
2019-04-23T12:36:42.198Z,7.30
2019-04-23T12:42:19.780Z,7.03
2019-04-23T12:53:43.238Z,7.30
2019-04-23T12:56:43.858Z,7.30
2019-04-23T12:59:25.290Z,7.60
2019-04-23T13:02:22.890Z,6.87
2019-04-23T13:04:38.101Z,6.87
2019-04-23T13:07:09.010Z,7.00
2019-04-23T13:09:55.170Z,6.50
2019-04-23T13:12:32.827Z,6.97
2019-04-23T13:15:00.791Z,7.70
2019-04-23T13:20:03.708Z,7.50
2019-04-23T13:22:46.158Z,7.67
2019-04-23T13:25:40.281Z,7.40
2019-04-23T13:28:13.008Z,7.77
2019-04-23T13:30:56.509Z,7.33
2019-04-23T13:38:36.380Z,7.43
2019-04-23T13:43:42.521Z,7.70
2019-04-23T13:46:13.832Z,7.03
2019-04-23T13:48:45.482Z,7.83
2019-04-23T13:54:01.648Z,7.60
2019-04-23T13:59:21.671Z,7.27
2019-04-23T14:01:46.585Z,7.63
2019-04-23T14:04:44.636Z,7.50
2019-04-23T14:07:16.734Z,6.90
2019-04-23T14:12:20.423Z,8.27
2019-04-23T14:20:01.028Z,7.40
2019-04-23T14:25:10.203Z,7.33
2019-04-23T14:27:56.533Z,7.07
2019-04-23T14:32:54.246Z,8.33
2019-04-23T14:35:40.193Z,8.07
2019-04-23T14:41:07.850Z,7.90
2019-04-23T14:43:40.334Z,6.83
2019-04-23T14:46:34.913Z,6.93
2019-04-23T14:48:56.978Z,8.20
2019-04-23T14:51:46.408Z,7.53
2019-04-23T14:54:23.481Z,6.87
2019-04-23T14:56:42.073Z,8.13
2019-04-23T15:01:39.889Z,7.50
2019-04-23T15:04:10.891Z,7.97
2019-04-23T15:06:50.900Z,7.40
2019-04-23T15:09:27.622Z,7.70
2019-04-23T15:14:56.317Z,6.57
2019-04-23T15:17:49.689Z,6.53
2019-04-23T15:20:23.021Z,6.77
2019-04-23T15:23:31.814Z,7.00
2019-04-23T15:26:19.852Z,6.27
2019-04-23T15:28:10.103Z,7.40
2019-04-23T15:31:15.395Z,6.37
2019-04-23T15:33:57.208Z,6.90
2019-04-23T15:36:32.799Z,7.30
2019-04-23T15:38:53.629Z,7.17
2019-04-23T15:46:41.085Z,6.80
2019-04-23T15:49:15.988Z,6.10
2019-04-23T15:54:19.635Z,5.87
2019-04-23T15:56:56.405Z,5.97
2019-04-23T15:59:34.997Z,6.10
2019-04-23T16:01:41.158Z,6.10
2019-04-23T16:04:01.354Z,6.37
2019-04-23T16:06:34.781Z,6.43
2019-04-23T16:09:21.097Z,5.67
2019-04-23T16:15:12.900Z,13.00
2019-04-23T16:17:37.448Z,8.33
2019-04-23T16:22:55.281Z,6.93
2019-04-23T16:25:43.097Z,6.10
2019-04-23T16:28:23.962Z,5.80
2019-04-23T16:30:56.469Z,6.40
2019-04-23T16:33:31.981Z,5.90
2019-04-23T16:36:21.832Z,6.80
2019-04-23T16:38:52.223Z,6.43
2019-04-23T16:43:59.680Z,6.13
2019-04-23T16:46:26.948Z,6.77
2019-04-23T16:49:06.780Z,5.80
2019-04-23T16:54:09.939Z,5.93
2019-04-23T16:56:55.633Z,6.40
2019-04-23T17:01:52.145Z,5.73
2019-04-23T17:06:52.416Z,6.43
2019-04-23T17:09:38.856Z,6.47
2019-04-23T17:12:05.898Z,6.07
2019-04-23T17:14:33.003Z,6.20
2019-04-23T17:17:09.953Z,6.17
2019-04-23T17:19:48.361Z,6.83
2019-04-23T17:22:31.491Z,6.27
2019-04-23T17:27:28.103Z,6.43
2019-04-23T17:30:11.607Z,6.73
2019-04-23T17:33:01.758Z,6.93
2019-04-23T17:35:45.971Z,6.60
2019-04-23T17:38:30.341Z,6.70
2019-04-23T17:41:00.065Z,7.07
2019-04-23T17:43:41.508Z,7.57
2019-04-23T17:46:14.624Z,7.03
2019-04-23T17:48:53.132Z,6.60
2019-04-23T17:51:19.429Z,6.80
2019-04-23T17:54:06.993Z,6.57
2019-04-23T17:56:47.761Z,6.97
2019-04-23T17:59:22.511Z,6.80
2019-04-23T18:01:59.501Z,6.93
2019-04-23T18:07:04.453Z,6.43
2019-04-23T18:09:37.113Z,6.07
2019-04-23T18:12:53.762Z,7.13
2019-04-23T18:14:55.728Z,6.73
2019-04-23T18:20:13.359Z,6.93
2019-04-23T18:23:00.453Z,6.37
2019-04-23T18:25:45.997Z,6.47
2019-04-23T18:28:08.225Z,6.40
2019-04-23T18:31:12.969Z,7.07
2019-04-23T18:36:19.787Z,6.83
2019-04-23T18:41:31.423Z,6.43
2019-04-23T18:44:24.973Z,7.03
2019-04-23T18:49:49.150Z,7.63
2019-04-23T18:54:48.030Z,7.20
2019-04-23T18:57:36.796Z,7.33
2019-04-23T19:03:12.785Z,6.90
2019-04-23T19:06:18.852Z,7.30
2019-04-23T19:11:51.198Z,7.30
2019-04-23T19:14:21.306Z,6.70
2019-04-23T19:17:07.499Z,8.07
2019-04-23T19:27:18.368Z,7.70
2019-04-23T19:32:41.252Z,8.67
2019-04-23T19:35:16.200Z,7.87
2019-04-23T19:37:56.099Z,7.37
2019-04-23T19:40:37.866Z,7.60
2019-04-23T19:43:05.775Z,8.63
2019-04-23T19:45:56.358Z,8.60
2019-04-23T19:48:25.415Z,8.53
2019-04-23T19:51:07.557Z,8.80
2019-04-23T19:53:43.143Z,8.33
2019-04-23T19:58:54.443Z,8.23
2019-04-23T20:01:16.524Z,8.70
2019-04-23T20:03:49.607Z,8.93
2019-04-23T20:06:32.813Z,9.10
2019-04-23T20:13:55.429Z,9.23
2019-04-23T20:16:40.123Z,9.03
2019-04-23T20:19:31.488Z,8.97
2019-04-23T20:22:00.581Z,9.77
2019-04-23T20:24:39.352Z,9.73
2019-04-23T20:30:21.157Z,9.97
2019-04-23T20:33:26.503Z,8.97
2019-04-23T20:42:58.770Z,9.53
2019-04-23T20:46:03.486Z,10.07
2019-04-23T20:48:35.151Z,10.13
2019-04-23T20:50:50.774Z,9.60
2019-04-23T20:53:31.361Z,10.13
2019-04-23T20:56:10.141Z,9.90
2019-04-23T20:59:11.429Z,10.17
2019-04-23T21:01:55.644Z,9.97
2019-04-23T21:04:42.631Z,10.07
2019-04-23T21:07:17.593Z,9.97
2019-04-23T21:10:01.243Z,10.07
2019-04-23T21:12:45.989Z,10.20
2019-04-23T21:15:05.418Z,9.97
2019-04-23T21:17:35.733Z,10.37
2019-04-23T21:20:08.178Z,9.33
2019-04-23T21:22:32.143Z,10.73
2019-04-23T21:25:02.705Z,10.07
2019-04-23T21:30:48.965Z,10.90
2019-04-23T21:44:42.045Z,10.07
2019-04-23T21:47:11.099Z,10.73
2019-04-23T21:50:11.912Z,9.80
2019-04-23T21:55:00.515Z,11.13
2019-04-23T21:57:35.386Z,9.77
2019-04-23T22:00:02.614Z,9.97
2019-04-23T22:02:58.456Z,9.67
2019-04-23T22:05:09.005Z,10.63
2019-04-23T22:07:51.904Z,10.93
2019-04-23T22:15:34.336Z,11.60
2019-04-23T22:17:59.852Z,10.87
2019-04-23T22:20:38.328Z,10.77
2019-04-23T22:23:14.464Z,10.47
2019-04-23T22:25:52.599Z,11.50
2019-04-23T22:28:11.447Z,10.50
2019-04-23T22:33:31.447Z,10.77
2019-04-23T22:38:26.574Z,11.03
2019-04-23T22:41:01.798Z,10.50
2019-04-23T22:43:44.535Z,10.73
2019-04-23T22:46:15.497Z,9.70
2019-04-23T22:51:46.361Z,11.90
2019-04-23T22:54:11.419Z,11.63
2019-04-23T22:59:27.887Z,11.80
2019-04-23T23:04:40.953Z,10.83
2019-04-23T23:07:21.911Z,11.37
2019-04-23T23:12:28.787Z,10.93
2019-04-23T23:14:57.437Z,11.30
2019-04-23T23:17:20.640Z,11.50
2019-04-23T23:20:15.490Z,11.87
2019-04-23T23:22:27.505Z,12.07
2019-04-23T23:25:11.455Z,11.40
2019-04-23T23:27:44.625Z,11.07
2019-04-23T23:32:55.607Z,11.87
2019-04-23T23:35:24.636Z,11.63
2019-04-23T23:37:42.304Z,11.27
2019-04-23T23:40:21.572Z,11.30
2019-04-23T23:43:08.150Z,11.60
2019-04-23T23:47:59.518Z,12.77
2019-04-23T23:50:25.558Z,12.57
2019-04-23T23:53:02.684Z,13.23
2019-04-23T23:55:31.856Z,12.27
2019-04-23T23:58:15.725Z,12.33
